createdAt,value
2024-01-20T00:00:58.648Z,101217.59
2024-01-20T00:03:46.708Z,101211.34
2024-01-20T00:06:15.089Z,101217.42
2024-01-20T00:08:43.326Z,101226.33
2024-01-20T00:11:11.490Z,101221.65
2024-01-20T00:13:40.008Z,101218.27
2024-01-20T00:16:08.152Z,101219.63
2024-01-20T00:18:36.639Z,101217.63
2024-01-20T00:21:05.102Z,101218.99
2024-01-20T00:23:33.158Z,101223.02
2024-01-20T00:26:01.325Z,101220.27
2024-01-20T00:28:29.739Z,101226.48
2024-01-20T00:30:57.914Z,101216.52
2024-01-20T00:33:27.317Z,101214.48
2024-01-20T00:35:55.920Z,101211.11
2024-01-20T00:38:24.074Z,101209.04
2024-01-20T00:40:52.550Z,101199.52
2024-01-20T00:43:20.716Z,101195.41
2024-01-20T00:45:49.148Z,101199.98
2024-01-20T00:48:17.209Z,101198.44
2024-01-20T00:50:45.286Z,101195.98
2024-01-20T00:53:13.521Z,101209.64
2024-01-20T00:55:41.730Z,101214.45
2024-01-20T00:58:11.649Z,101213.91
2024-01-20T01:00:39.955Z,101215.02
2024-01-20T01:03:09.559Z,101224.27
2024-01-20T01:05:37.734Z,101235.23
2024-01-20T01:08:05.954Z,101230.89
2024-01-20T01:10:34.381Z,101226.53
2024-01-20T01:13:02.489Z,101228.08
2024-01-20T01:15:31.993Z,101225.11
2024-01-20T01:18:00.088Z,101230.08
2024-01-20T01:20:28.157Z,101228.94
2024-01-20T01:22:56.280Z,101223.67
2024-01-20T01:25:24.442Z,101228.80
2024-01-20T01:27:52.392Z,101219.05
2024-01-20T01:30:20.720Z,101218.39
2024-01-20T01:32:48.962Z,101218.23
2024-01-20T01:35:17.087Z,101220.11
2024-01-20T01:37:45.193Z,101221.91
2024-01-20T01:40:14.350Z,101223.09
2024-01-20T01:42:42.594Z,101224.48
2024-01-20T01:45:11.598Z,101225.51
2024-01-20T01:47:40.417Z,101232.59
2024-01-20T01:50:09.175Z,101223.95
2024-01-20T01:52:37.666Z,101226.27
2024-01-20T01:55:06.060Z,101225.59
2024-01-20T01:57:36.318Z,101225.40
2024-01-20T02:00:05.772Z,101221.64
2024-01-20T02:02:33.890Z,101230.73
2024-01-20T02:05:02.067Z,101230.71
2024-01-20T02:07:31.087Z,101232.42
2024-01-20T02:09:59.102Z,101236.88
2024-01-20T02:12:28.649Z,101232.38
2024-01-20T02:14:56.899Z,101231.96
2024-01-20T02:17:25.260Z,101236.40
2024-01-20T02:19:53.377Z,101237.95
2024-01-20T02:22:21.642Z,101245.34
2024-01-20T02:24:51.095Z,101241.92
2024-01-20T02:27:20.372Z,101242.54
2024-01-20T02:29:48.553Z,101239.92
2024-01-20T02:32:17.105Z,101245.86
2024-01-20T02:34:45.255Z,101235.93
2024-01-20T02:37:13.294Z,101230.33
2024-01-20T02:39:41.480Z,101232.58
2024-01-20T02:42:11.005Z,101228.39
2024-01-20T02:44:39.825Z,101232.45
2024-01-20T02:47:07.996Z,101236.14
2024-01-20T02:49:36.436Z,101236.14
2024-01-20T02:52:05.148Z,101225.88
2024-01-20T02:54:33.346Z,101229.54
2024-01-20T02:57:01.668Z,101237.76
2024-01-20T02:59:29.796Z,101237.45
2024-01-20T03:01:58.287Z,101234.95
2024-01-20T03:04:26.364Z,101236.73
2024-01-20T03:06:54.413Z,101229.34
2024-01-20T03:09:23.053Z,101229.63
2024-01-20T03:11:51.127Z,101221.65
2024-01-20T03:14:19.238Z,101224.27
2024-01-20T03:16:47.292Z,101223.73
2024-01-20T03:19:15.410Z,101224.25
2024-01-20T03:21:43.439Z,101236.84
2024-01-20T03:24:12.154Z,101234.73
2024-01-20T03:26:40.162Z,101233.70
2024-01-20T03:29:08.294Z,101236.73
2024-01-20T03:31:36.416Z,101222.19
2024-01-20T03:34:05.080Z,101215.27
2024-01-20T03:36:33.269Z,101216.07
2024-01-20T03:39:01.417Z,101214.41
2024-01-20T03:41:29.497Z,101223.36
2024-01-20T03:43:58.773Z,101225.73
2024-01-20T03:46:27.088Z,101214.88
2024-01-20T03:48:55.316Z,101225.59
2024-01-20T03:51:28.293Z,101234.77
2024-01-20T03:53:56.953Z,101240.91
2024-01-20T03:56:25.087Z,101243.28
2024-01-20T03:58:53.190Z,101246.45
2024-01-20T04:01:21.390Z,101250.50
2024-01-20T04:03:49.443Z,101242.83
2024-01-20T04:06:42.715Z,101242.41
2024-01-20T04:09:11.045Z,101240.46
2024-01-20T04:11:39.140Z,101238.70
2024-01-20T04:14:07.167Z,101242.89
2024-01-20T04:16:35.326Z,101252.98
2024-01-20T04:19:03.504Z,101246.48
2024-01-20T04:21:31.517Z,101255.17
2024-01-20T04:23:59.674Z,101253.70
2024-01-20T04:26:27.861Z,101249.93
2024-01-20T04:28:55.867Z,101260.04
2024-01-20T04:31:23.845Z,101250.92
2024-01-20T04:33:54.898Z,101263.58
2024-01-20T04:36:23.309Z,101264.72
2024-01-20T04:38:51.598Z,101253.87
2024-01-20T04:41:19.603Z,101257.31
2024-01-20T04:43:47.681Z,101252.02
2024-01-20T04:46:15.672Z,101264.41
2024-01-20T04:48:43.929Z,101261.67
2024-01-20T04:51:12.571Z,101268.81
2024-01-20T04:53:40.817Z,101267.55
2024-01-20T04:56:09.089Z,101267.58
2024-01-20T04:58:38.652Z,101266.11
2024-01-20T05:01:07.082Z,101265.93
2024-01-20T05:03:35.233Z,101267.07
2024-01-20T05:06:03.455Z,101267.09
2024-01-20T05:08:31.605Z,101269.91
2024-01-20T05:10:59.605Z,101262.01
2024-01-20T05:13:27.559Z,101275.69
2024-01-20T05:15:55.777Z,101267.02
2024-01-20T05:18:23.885Z,101272.89
2024-01-20T05:20:51.944Z,101281.31
2024-01-20T05:23:20.310Z,101279.02
2024-01-20T05:25:48.806Z,101267.15
2024-01-20T05:28:17.009Z,101267.41
2024-01-20T05:30:45.266Z,101275.55
2024-01-20T05:33:13.598Z,101275.04
2024-01-20T05:35:41.966Z,101270.91
2024-01-20T05:38:09.987Z,101269.86
2024-01-20T05:40:38.014Z,101271.17
2024-01-20T05:43:06.070Z,101274.66
2024-01-20T05:45:34.265Z,101276.37
2024-01-20T05:48:02.693Z,101279.27
2024-01-20T05:50:30.720Z,101281.30
2024-01-20T05:52:58.776Z,101276.28
2024-01-20T05:55:26.787Z,101278.34
2024-01-20T05:57:55.163Z,101278.05
2024-01-20T06:00:23.564Z,101282.92
2024-01-20T06:02:53.648Z,101279.88
2024-01-20T06:05:21.811Z,101280.57
2024-01-20T06:07:49.893Z,101285.56
2024-01-20T06:10:17.998Z,101287.02
2024-01-20T06:12:46.060Z,101280.98
2024-01-20T06:15:14.197Z,101292.86
2024-01-20T06:17:42.382Z,101293.94
2024-01-20T06:20:10.875Z,101296.61
2024-01-20T06:22:40.529Z,101295.81
2024-01-20T06:25:08.748Z,101298.21
2024-01-20T06:27:37.255Z,101294.41
2024-01-20T06:30:05.935Z,101302.21
2024-01-20T06:32:34.022Z,101294.23
2024-01-20T06:35:02.267Z,101299.76
2024-01-20T06:37:30.463Z,101298.48
2024-01-20T06:39:58.590Z,101304.91
2024-01-20T06:42:27.096Z,101311.75
2024-01-20T06:44:57.237Z,101314.25
2024-01-20T06:47:27.438Z,101310.46
2024-01-20T06:49:55.564Z,101305.95
2024-01-20T06:52:23.700Z,101305.44
2024-01-20T06:54:51.933Z,101304.39
2024-01-20T06:57:20.250Z,101306.18
2024-01-20T06:59:48.348Z,101301.02
2024-01-20T07:02:16.963Z,101304.71
2024-01-20T07:04:45.378Z,101306.45
2024-01-20T07:07:13.997Z,101301.60
2024-01-20T07:09:42.078Z,101299.36
2024-01-20T07:12:10.861Z,101306.23
2024-01-20T07:14:39.273Z,101315.81
2024-01-20T07:17:07.419Z,101314.67
2024-01-20T07:19:35.817Z,101317.07
2024-01-20T07:22:04.186Z,101330.02
2024-01-20T07:24:32.607Z,101325.17
2024-01-20T07:27:00.831Z,101322.33
2024-01-20T07:29:28.937Z,101317.44
2024-01-20T07:31:57.093Z,101318.80
2024-01-20T07:34:25.296Z,101323.57
2024-01-20T07:36:53.449Z,101314.27
2024-01-20T07:39:21.693Z,101314.73
2024-01-20T07:41:49.790Z,101313.48
2024-01-20T07:44:17.881Z,101328.08
2024-01-20T07:46:46.055Z,101329.52
2024-01-20T07:49:15.598Z,101330.14
2024-01-20T07:51:43.791Z,101333.65
2024-01-20T07:54:13.618Z,101334.44
2024-01-20T07:56:41.942Z,101333.16
2024-01-20T07:59:10.295Z,101331.46
2024-01-20T08:01:39.669Z,101337.54
2024-01-20T08:04:08.761Z,101342.59
2024-01-20T08:06:37.705Z,101340.77
2024-01-20T08:09:06.105Z,101344.14
2024-01-20T08:11:34.186Z,101342.46
2024-01-20T08:14:02.410Z,101350.10
2024-01-20T08:16:30.749Z,101344.94
2024-01-20T08:18:59.448Z,101345.80
2024-01-20T08:21:27.713Z,101342.20
2024-01-20T08:23:56.496Z,101347.56
2024-01-20T08:26:24.629Z,101349.58
2024-01-20T08:28:52.927Z,101357.42
2024-01-20T08:31:21.115Z,101354.79
2024-01-20T08:33:49.399Z,101353.71
2024-01-20T08:36:17.767Z,101352.92
2024-01-20T08:38:45.901Z,101354.92
2024-01-20T08:41:14.014Z,101357.17
2024-01-20T08:43:43.330Z,101355.13
2024-01-20T08:46:13.660Z,101356.56
2024-01-20T08:48:43.272Z,101359.45
2024-01-20T08:51:11.510Z,101358.98
2024-01-20T08:53:40.929Z,101358.58
2024-01-20T08:56:09.762Z,101364.75
2024-01-20T08:58:37.978Z,101370.34
2024-01-20T09:01:07.998Z,101373.87
2024-01-20T09:03:36.413Z,101366.42
2024-01-20T09:06:05.137Z,101362.31
2024-01-20T09:08:33.210Z,101369.29
2024-01-20T09:11:01.354Z,101363.59
2024-01-20T09:13:29.426Z,101372.13
2024-01-20T09:15:57.853Z,101374.95
2024-01-20T09:18:26.980Z,101379.48
2024-01-20T09:20:55.443Z,101367.76
2024-01-20T09:23:23.486Z,101367.04
2024-01-20T09:25:51.713Z,101377.57
2024-01-20T09:28:19.714Z,101371.16
2024-01-20T09:30:47.903Z,101386.58
2024-01-20T09:33:16.327Z,101386.79
2024-01-20T09:35:46.386Z,101393.55
2024-01-20T09:38:14.581Z,101390.30
2024-01-20T09:40:42.990Z,101391.06
2024-01-20T09:43:11.622Z,101387.92
2024-01-20T09:45:41.681Z,101385.41
2024-01-20T09:48:11.040Z,101395.56
2024-01-20T09:50:39.470Z,101383.49
2024-01-20T09:53:18.672Z,101377.91
2024-01-20T09:55:47.589Z,101372.67
2024-01-20T09:58:18.534Z,101384.35
2024-01-20T10:00:49.029Z,101383.83
2024-01-20T10:03:18.701Z,101384.30
2024-01-20T10:05:47.985Z,101380.81
2024-01-20T10:08:16.137Z,101375.73
2024-01-20T10:10:45.046Z,101372.58
2024-01-20T10:13:14.751Z,101364.75
2024-01-20T10:15:42.917Z,101374.30
2024-01-20T10:18:14.097Z,101378.83
2024-01-20T10:20:43.492Z,101371.44
2024-01-20T10:23:12.769Z,101363.84
2024-01-20T10:25:40.876Z,101361.35
2024-01-20T10:28:09.144Z,101366.30
2024-01-20T10:30:40.182Z,101366.50
2024-01-20T10:33:11.070Z,101361.50
2024-01-20T10:35:40.345Z,101366.51
2024-01-20T10:38:14.120Z,101364.92
2024-01-20T10:40:44.596Z,101359.38
2024-01-20T10:43:16.663Z,101361.68
2024-01-20T10:46:13.098Z,101354.30
2024-01-20T10:48:49.581Z,101359.54
2024-01-20T10:51:24.106Z,101353.52
2024-01-20T10:53:53.157Z,101359.11
2024-01-20T10:56:21.753Z,101352.77
2024-01-20T10:58:57.912Z,101348.09
2024-01-20T11:01:26.723Z,101352.42
2024-01-20T11:03:55.421Z,101361.32
2024-01-20T11:06:26.565Z,101364.58
2024-01-20T11:08:54.924Z,101359.11
2024-01-20T11:11:30.516Z,101363.02
2024-01-20T11:14:03.167Z,101356.44
2024-01-20T11:16:38.303Z,101358.69
2024-01-20T11:19:13.681Z,101357.57
2024-01-20T11:21:42.194Z,101359.84
2024-01-20T11:24:11.999Z,101361.16
2024-01-20T11:26:41.200Z,101359.11
2024-01-20T11:29:09.962Z,101369.02
2024-01-20T11:31:38.315Z,101366.79
2024-01-20T11:34:07.703Z,101365.52
2024-01-20T11:36:36.655Z,101371.23
2024-01-20T11:39:07.240Z,101377.09
2024-01-20T11:41:35.689Z,101370.30
2024-01-20T11:44:03.711Z,101365.91
2024-01-20T11:46:31.886Z,101358.61
2024-01-20T11:49:00.365Z,101365.70
2024-01-20T11:51:29.291Z,101372.20
2024-01-20T11:53:57.376Z,101363.30
2024-01-20T11:56:26.273Z,101365.65
2024-01-20T11:58:54.456Z,101362.30
2024-01-20T12:01:22.780Z,101354.27
2024-01-20T12:03:51.016Z,101358.59
2024-01-20T12:06:19.373Z,101367.35
2024-01-20T12:08:47.746Z,101354.80
2024-01-20T12:11:23.374Z,101372.08
2024-01-20T12:13:51.882Z,101379.81
2024-01-20T12:16:20.207Z,101390.85
2024-01-20T12:18:48.594Z,101385.70
2024-01-20T12:21:17.396Z,101391.31
2024-01-20T12:23:48.012Z,101400.48
2024-01-20T12:26:17.770Z,101399.29
2024-01-20T12:28:48.133Z,101411.94
2024-01-20T12:31:19.219Z,101419.48
2024-01-20T12:33:50.885Z,101424.92
2024-01-20T12:36:20.442Z,101438.16
2024-01-20T12:38:49.347Z,101426.93
2024-01-20T12:41:17.751Z,101433.64
2024-01-20T12:43:49.994Z,101443.77
2024-01-20T12:46:19.355Z,101439.17
2024-01-20T12:48:47.386Z,101440.61
2024-01-20T12:51:16.504Z,101446.02
2024-01-20T12:53:45.187Z,101444.41
2024-01-20T12:56:13.432Z,101455.40
2024-01-20T12:58:42.472Z,101458.31
2024-01-20T13:01:10.440Z,101458.19
2024-01-20T13:03:38.908Z,101456.84
2024-01-20T13:06:07.163Z,101463.42
2024-01-20T13:08:36.172Z,101472.51
2024-01-20T13:11:04.755Z,101469.23
2024-01-20T13:13:33.836Z,101469.44
2024-01-20T13:16:02.286Z,101474.09
2024-01-20T13:18:32.299Z,101476.84
2024-01-20T13:21:00.689Z,101477.73
2024-01-20T13:23:28.753Z,101486.44
2024-01-20T13:25:56.963Z,101495.66
2024-01-20T13:28:25.146Z,101511.14
2024-01-20T13:30:53.611Z,101509.85
2024-01-20T13:33:24.213Z,101509.91
2024-01-20T13:35:53.484Z,101510.59
2024-01-20T13:38:21.471Z,101511.94
2024-01-20T13:40:52.234Z,101504.92
2024-01-20T13:43:20.197Z,101506.77
2024-01-20T13:45:48.276Z,101505.38
2024-01-20T13:48:16.374Z,101511.07
2024-01-20T13:50:44.420Z,101513.45
2024-01-20T13:53:12.331Z,101521.14
2024-01-20T13:55:40.469Z,101529.65
2024-01-20T13:58:08.860Z,101535.00
2024-01-20T14:00:36.884Z,101545.42
2024-01-20T14:03:05.271Z,101550.65
2024-01-20T14:05:33.596Z,101545.18
2024-01-20T14:08:01.610Z,101548.10
2024-01-20T14:10:32.078Z,101555.93
2024-01-20T14:13:03.513Z,101556.33
2024-01-20T14:15:46.568Z,101567.02
2024-01-20T14:18:15.314Z,101574.44
2024-01-20T14:20:43.391Z,101578.70
2024-01-20T14:23:12.520Z,101585.80
2024-01-20T14:25:42.924Z,101591.96
2024-01-20T14:28:10.931Z,101611.30
2024-01-20T14:30:48.007Z,101619.58
2024-01-20T14:33:27.070Z,101621.62
2024-01-20T14:35:54.996Z,101625.83
2024-01-20T14:38:22.867Z,101623.10
2024-01-20T14:40:51.124Z,101621.98
2024-01-20T14:43:19.081Z,101638.72
2024-01-20T14:45:47.120Z,101647.13
2024-01-20T14:48:15.615Z,101647.48
2024-01-20T14:50:45.756Z,101659.36
2024-01-20T14:53:13.703Z,101660.98
2024-01-20T14:55:44.185Z,101670.45
2024-01-20T14:58:12.239Z,101674.60
2024-01-20T15:00:42.331Z,101673.57
2024-01-20T15:03:57.977Z,101682.42
2024-01-20T15:06:32.978Z,101675.66
2024-01-20T15:09:08.494Z,101681.77
2024-01-20T15:11:39.842Z,101686.38
2024-01-20T15:14:09.558Z,101693.54
2024-01-20T15:16:37.801Z,101694.08
2024-01-20T15:19:07.766Z,101698.88
2024-01-20T15:21:36.421Z,101700.05
2024-01-20T15:24:04.763Z,101701.45
2024-01-20T15:26:34.256Z,101706.06
2024-01-20T15:29:20.238Z,101711.13
2024-01-20T15:31:53.052Z,101721.03
2024-01-20T15:34:22.183Z,101731.96
2024-01-20T15:36:52.255Z,101732.91
2024-01-20T15:39:20.297Z,101735.27
2024-01-20T15:41:48.437Z,101739.75
2024-01-20T15:44:17.525Z,101738.23
2024-01-20T15:46:48.086Z,101746.45
2024-01-20T15:49:18.876Z,101753.00
2024-01-20T15:51:51.084Z,101751.75
2024-01-20T15:54:19.797Z,101771.93
2024-01-20T15:56:50.827Z,101774.55
2024-01-20T15:59:24.473Z,101777.35
2024-01-20T16:01:53.332Z,101779.40
2024-01-20T16:04:21.476Z,101782.14
2024-01-20T16:06:49.769Z,101782.44
2024-01-20T16:09:18.715Z,101790.73
2024-01-20T16:11:51.840Z,101794.79
2024-01-20T16:14:27.830Z,101800.48
2024-01-20T16:16:55.749Z,101807.70
2024-01-20T16:19:24.360Z,101809.93
2024-01-20T16:21:54.744Z,101809.05
2024-01-20T16:24:23.356Z,101803.60
2024-01-20T16:26:51.801Z,101815.82
2024-01-20T16:29:21.194Z,101823.20
2024-01-20T16:31:51.217Z,101824.23
2024-01-20T16:34:23.467Z,101831.44
2024-01-20T16:36:52.570Z,101838.50
2024-01-20T16:39:20.723Z,101840.57
2024-01-20T16:41:48.552Z,101845.89
2024-01-20T16:44:16.476Z,101852.99
2024-01-20T16:46:52.590Z,101854.13
2024-01-20T16:49:21.891Z,101863.40
2024-01-20T16:51:50.389Z,101864.95
2024-01-20T16:54:18.669Z,101862.36
2024-01-20T16:56:46.606Z,101869.25
2024-01-20T16:59:14.445Z,101867.76
2024-01-20T17:01:42.510Z,101874.91
2024-01-20T17:04:10.588Z,101876.45
2024-01-20T17:06:39.244Z,101877.60
2024-01-20T17:09:07.198Z,101883.48
2024-01-20T17:11:35.312Z,101887.33
2024-01-20T17:14:04.889Z,101897.28
2024-01-20T17:16:36.028Z,101900.34
2024-01-20T17:19:05.131Z,101904.94
2024-01-20T17:21:35.884Z,101918.67
2024-01-20T17:24:07.528Z,101923.21
2024-01-20T17:26:35.464Z,101929.55
2024-01-20T17:29:03.877Z,101940.14
2024-01-20T17:31:34.958Z,101935.91
2024-01-20T17:34:04.855Z,101942.81
2024-01-20T17:36:33.643Z,101944.96
2024-01-20T17:39:01.762Z,101949.13
2024-01-20T17:41:29.763Z,101956.99
2024-01-20T17:43:57.737Z,101958.86
2024-01-20T17:46:25.554Z,101966.64
2024-01-20T17:48:53.457Z,101970.65
2024-01-20T17:51:21.793Z,101975.98
2024-01-20T17:53:49.625Z,101987.15
2024-01-20T17:56:17.796Z,101996.13
2024-01-20T17:58:46.090Z,101995.52
2024-01-20T18:01:14.030Z,102005.23
2024-01-20T18:03:42.101Z,102005.66
2024-01-20T18:06:10.451Z,102016.10
2024-01-20T18:08:39.107Z,102026.47
2024-01-20T18:11:07.178Z,102027.48
2024-01-20T18:13:36.587Z,102025.14
2024-01-20T18:16:05.684Z,102032.14
2024-01-20T18:18:35.947Z,102034.47
2024-01-20T18:21:04.676Z,102044.60
2024-01-20T18:23:32.906Z,102045.24
2024-01-20T18:26:01.058Z,102053.73
2024-01-20T18:28:29.201Z,102064.83
2024-01-20T18:30:57.390Z,102069.42
2024-01-20T18:33:26.731Z,102077.81
2024-01-20T18:35:55.068Z,102080.64
2024-01-20T18:38:23.985Z,102086.09
2024-01-20T18:40:52.023Z,102083.50
2024-01-20T18:43:20.179Z,102094.66
2024-01-20T18:45:48.257Z,102102.18
2024-01-20T18:48:16.562Z,102106.92
2024-01-20T18:50:45.977Z,102112.46
2024-01-20T18:53:14.474Z,102110.01
2024-01-20T18:55:43.099Z,102113.81
2024-01-20T18:58:13.339Z,102122.84
2024-01-20T19:00:41.455Z,102125.48
2024-01-20T19:03:10.201Z,102139.17
2024-01-20T19:05:39.303Z,102148.87
2024-01-20T19:08:07.779Z,102153.11
2024-01-20T19:10:36.015Z,102151.23
2024-01-20T19:13:04.140Z,102155.76
2024-01-20T19:15:32.727Z,102158.60
2024-01-20T19:18:00.868Z,102161.15
2024-01-20T19:20:29.171Z,102166.20
2024-01-20T19:22:57.308Z,102166.41
2024-01-20T19:25:25.364Z,102167.23
2024-01-20T19:27:54.066Z,102170.40
2024-01-20T19:30:22.378Z,102166.48
2024-01-20T19:32:51.022Z,102167.81
2024-01-20T19:35:20.606Z,102169.26
2024-01-20T19:37:49.337Z,102166.06
2024-01-20T19:40:17.610Z,102179.33
2024-01-20T19:42:45.755Z,102184.79
2024-01-20T19:45:14.624Z,102187.44
2024-01-20T19:47:42.748Z,102194.09
2024-01-20T19:50:11.852Z,102202.55
2024-01-20T19:52:40.172Z,102201.17
2024-01-20T19:55:09.623Z,102208.10
2024-01-20T19:57:38.014Z,102215.77
2024-01-20T20:00:07.053Z,102216.98
2024-01-20T20:02:41.065Z,102224.16
2024-01-20T20:05:09.074Z,102229.66
2024-01-20T20:07:37.726Z,102231.84
2024-01-20T20:10:06.648Z,102235.99
2024-01-20T20:12:34.788Z,102235.85
2024-01-20T20:15:04.557Z,102235.55
2024-01-20T20:17:33.952Z,102238.98
2024-01-20T20:20:02.562Z,102244.32
2024-01-20T20:22:30.791Z,102242.05
2024-01-20T20:24:58.855Z,102244.95
2024-01-20T20:27:27.788Z,102246.02
2024-01-20T20:29:56.569Z,102254.92
2024-01-20T20:32:26.153Z,102255.29
2024-01-20T20:34:54.672Z,102257.70
2024-01-20T20:37:22.941Z,102268.69
2024-01-20T20:39:51.396Z,102275.23
2024-01-20T20:42:26.151Z,102272.83
2024-01-20T20:44:55.265Z,102273.30
2024-01-20T20:47:28.107Z,102275.23
2024-01-20T20:49:57.124Z,102276.76
2024-01-20T20:52:30.679Z,102283.77
2024-01-20T20:54:58.865Z,102275.40
2024-01-20T20:57:26.932Z,102278.48
2024-01-20T20:59:57.951Z,102279.53
2024-01-20T21:02:31.406Z,102284.41
2024-01-20T21:04:59.637Z,102290.73
2024-01-20T21:07:31.710Z,102296.02
2024-01-20T21:10:00.799Z,102297.42
2024-01-20T21:12:29.460Z,102296.64
2024-01-20T21:14:58.150Z,102295.70
2024-01-20T21:17:28.637Z,102294.09
2024-01-20T21:19:57.034Z,102295.20
2024-01-20T21:22:25.483Z,102298.74
2024-01-20T21:24:53.481Z,102302.59
2024-01-20T21:27:23.335Z,102309.58
2024-01-20T21:29:51.393Z,102313.23
2024-01-20T21:32:22.118Z,102319.40
2024-01-20T21:34:50.605Z,102318.33
2024-01-20T21:37:18.918Z,102321.13
2024-01-20T21:39:47.026Z,102322.35
2024-01-20T21:42:17.908Z,102325.40
2024-01-20T21:44:46.427Z,102330.15
2024-01-20T21:47:14.480Z,102335.34
2024-01-20T21:49:42.626Z,102335.10
2024-01-20T21:52:10.931Z,102335.23
2024-01-20T21:54:39.047Z,102339.08
2024-01-20T21:57:07.344Z,102339.59
2024-01-20T21:59:35.417Z,102347.52
2024-01-20T22:02:04.719Z,102348.64
2024-01-20T22:04:32.746Z,102349.33
2024-01-20T22:07:00.901Z,102351.02
2024-01-20T22:09:28.906Z,102355.52
2024-01-20T22:11:56.927Z,102356.48
2024-01-20T22:14:24.919Z,102360.80
2024-01-20T22:16:53.610Z,102368.16
2024-01-20T22:19:21.742Z,102372.14
2024-01-20T22:21:49.787Z,102374.98
2024-01-20T22:24:17.855Z,102385.78
2024-01-20T22:26:46.466Z,102385.79
2024-01-20T22:29:23.407Z,102386.73
2024-01-20T22:31:56.413Z,102390.14
2024-01-20T22:34:30.916Z,102396.90
2024-01-20T22:37:00.540Z,102400.98
2024-01-20T22:39:28.872Z,102404.89
2024-01-20T22:41:57.093Z,102406.98
2024-01-20T22:44:25.176Z,102411.27
2024-01-20T22:46:53.463Z,102416.98
2024-01-20T22:49:22.943Z,102415.27
2024-01-20T22:51:51.376Z,102417.11
2024-01-20T22:54:23.617Z,102416.19
2024-01-20T22:56:52.593Z,102416.71
2024-01-20T22:59:20.661Z,102420.36
2024-01-20T23:01:48.703Z,102418.60
2024-01-20T23:04:17.006Z,102416.13
2024-01-20T23:06:46.955Z,102421.56
2024-01-20T23:09:15.040Z,102425.04
2024-01-20T23:11:43.108Z,102423.55
2024-01-20T23:14:12.097Z,102425.92
2024-01-20T23:16:40.560Z,102425.14
2024-01-20T23:19:09.316Z,102423.77
2024-01-20T23:21:37.426Z,102422.69
2024-01-20T23:24:05.921Z,102420.16
2024-01-20T23:26:33.971Z,102417.59
2024-01-20T23:29:02.481Z,102417.11
2024-01-20T23:31:30.455Z,102424.60
2024-01-20T23:33:58.680Z,102425.66
2024-01-20T23:36:26.857Z,102429.04
2024-01-20T23:38:54.849Z,102431.67
2024-01-20T23:41:23.057Z,102428.96
2024-01-20T23:43:51.036Z,102432.87
2024-01-20T23:46:19.045Z,102431.95
2024-01-20T23:48:47.048Z,102435.80
2024-01-20T23:51:15.280Z,102441.40
2024-01-20T23:53:43.427Z,102444.02
2024-01-20T23:56:12.031Z,102450.00
2024-01-20T23:58:40.194Z,102451.67
